Pagrindinis puslapis
METAR-TAF:

METAR-TAF

Oro uostai :

Mehongsonas, Tailandas

platuma: 19-18N, ilguma: 097-50E, Aukštis: 267 m

Dabartinis oras

Ataskaita buvo paskelbta 9 valandos ir 23 minutes, ne 12:00 UTC
Vėjas 2 kt nuo kintamojo kryptimis
Temperatūra 36°C
Drėgmė 37%
Slėgis 1008 hPa
Matomumas 10 km arba daugiau
Mažai debesys ne aukštis 2000 ft, Liūtiniai kamuoliniai debesys.

METAR: VTCH 121200Z VRB02KT 9999 FEW020CB 36/19 Q1008 NOSIG

Laikas: 04:23 (21:23 UTC)

Prognozė

Ataskaita buvo paskelbta 4 valandos ir 23 minutes, ne 17:00 UTC
Prognozė galioja nuo 12 metu 18 UTC su 13 metu 18 UTC
Vėjas 5 kt iš Vakarų/Pietvakarių
Matomumas 10 km arba daugiau
Mažai debesys ne aukštis 2500 ft
Laikinai
nuo 13 metu 08 UTC su 13 metu 14 UTC
Vėjas 15 kt iš Vakarų su gūsio iki 30 kt
Matomumas: 3000 m
Mažai debesys ne aukštis 2000 ft, Liūtiniai kamuoliniai debesys.
Su prošvaistėmis ne aukštis 2500 ft
perkūnija, lietus

TAF: VTCH 121700Z 1218/1318 24005KT 9999 FEW025 TEMPO 1308/1314 27015G30KT 3000 TSRA FEW020CB BKN025

Orai ataskaitas ir orų prognozės (METAR, TAF).

turimą stotys yra geltonos ir raudonos taškus žemėlapyje.

Perkelti pele per norėdami pamatyti stoties vardą.

Tada spustelėkite, norėdami matyti oro stebėjimo ir prognozės.

Norėdami pakeisti žemėlapį: spustelėkite ant žalios mygtukų su juodo kryžiaus žemyn,; žalią mygtuką su brūkšneliu, jei norite nutolinti; arba žalių rodyklių gretimoms žemėlapius.


METAR-TAF: